createdAt,value
2019-03-04T00:04:39.879Z,4.5
2019-03-04T00:10:02.675Z,4.8
2019-03-04T00:15:25.299Z,3.8
2019-03-04T00:20:47.974Z,4.2
2019-03-04T00:26:11.080Z,4.2
2019-03-04T00:31:34.399Z,3.5
2019-03-04T00:36:57.225Z,3.8
2019-03-04T00:42:20.112Z,3.8
2019-03-04T00:47:42.716Z,3.8
2019-03-04T00:53:16.295Z,3.4
2019-03-04T00:58:39.021Z,3.1
2019-03-04T01:04:02.020Z,3.7
2019-03-04T01:09:24.628Z,3.4
2019-03-04T01:14:47.452Z,3.2
2019-03-04T01:20:10.109Z,3.4
2019-03-04T01:25:32.736Z,3.7
2019-03-04T01:30:55.357Z,3.3
2019-03-04T01:36:18.055Z,2.8
2019-03-04T01:41:40.784Z,2.9
2019-03-04T01:47:03.724Z,3.1
2019-03-04T01:52:26.569Z,3.3
2019-03-04T01:57:49.309Z,3.1
2019-03-04T02:03:12.750Z,3.1
2019-03-04T02:08:36.071Z,3.2
2019-03-04T02:13:58.789Z,3.3
2019-03-04T02:19:21.565Z,3.1
2019-03-04T02:24:44.210Z,2.9
2019-03-04T02:30:06.948Z,2.7
2019-03-04T02:35:29.609Z,2.6
2019-03-04T02:40:52.436Z,3.4
2019-03-04T02:46:15.094Z,2.9
2019-03-04T02:51:37.849Z,2.8
2019-03-04T02:57:00.547Z,2.6
2019-03-04T03:02:24.063Z,2.5
2019-03-04T03:07:46.994Z,2.6
2019-03-04T03:13:10.425Z,3
2019-03-04T03:18:33.245Z,2.5
2019-03-04T03:23:55.895Z,2.4
2019-03-04T03:29:18.698Z,2.4
2019-03-04T03:34:41.940Z,2.3
2019-03-04T03:40:04.635Z,2.5
2019-03-04T03:45:27.637Z,2.4
2019-03-04T03:50:50.257Z,2
2019-03-04T03:56:13.048Z,2
2019-03-04T04:01:35.768Z,2
2019-03-04T04:06:59.091Z,2.1
2019-03-04T04:12:21.750Z,1.7
2019-03-04T04:17:44.364Z,1.8
2019-03-04T04:23:07.058Z,1.7
2019-03-04T04:28:30.575Z,1.6
2019-03-04T04:33:53.446Z,1.8
2019-03-04T04:39:16.470Z,1.7
2019-03-04T04:44:39.321Z,1.7
2019-03-04T04:50:02.070Z,1.7
2019-03-04T04:55:24.792Z,1.7
2019-03-04T05:00:48.059Z,1.7
2019-03-04T05:06:13.014Z,1.5
2019-03-04T05:11:35.214Z,1.6
2019-03-04T05:16:57.996Z,1.5
2019-03-04T05:22:20.824Z,1.5
2019-03-04T05:27:43.628Z,1.5
2019-03-04T05:33:06.312Z,1.8
2019-03-04T05:38:29.225Z,1.9
2019-03-04T05:43:51.889Z,1.6
2019-03-04T05:49:14.475Z,1.8
2019-03-04T05:54:37.271Z,1.8
2019-03-04T06:00:01.379Z,1.9
2019-03-04T06:05:23.720Z,1.8
2019-03-04T06:10:47.402Z,1.6
2019-03-04T06:16:11.099Z,1.3
2019-03-04T06:21:33.782Z,1.3
2019-03-04T06:26:56.531Z,1.4
2019-03-04T06:32:19.092Z,1.5
2019-03-04T06:37:41.808Z,1.3
2019-03-04T06:43:04.476Z,1.2
2019-03-04T06:48:27.327Z,1.3
2019-03-04T06:53:50.021Z,1.5
2019-03-04T06:59:14.497Z,1.4
2019-03-04T07:04:37.041Z,1.4
2019-03-04T07:09:59.788Z,1.4
2019-03-04T07:15:22.548Z,1.1
2019-03-04T07:20:45.223Z,1.1
2019-03-04T07:26:09.363Z,1.1
2019-03-04T07:31:33.075Z,0.8
2019-03-04T07:36:55.808Z,0.6
2019-03-04T07:42:18.579Z,0.5
2019-03-04T07:47:41.296Z,0.6
2019-03-04T07:53:03.935Z,0.4
2019-03-04T07:58:26.550Z,0.6
2019-03-04T08:03:49.399Z,0.5
2019-03-04T08:09:12.019Z,0.8
2019-03-04T08:14:34.638Z,0.7
2019-03-04T08:19:57.302Z,0.5
2019-03-04T08:25:19.918Z,1
2019-03-04T08:30:42.822Z,0.7
2019-03-04T08:36:05.506Z,0.6
2019-03-04T08:41:28.167Z,0.9
2019-03-04T08:46:50.919Z,0.7
2019-03-04T08:52:13.613Z,0.9
2019-03-04T08:57:36.726Z,0.5
2019-03-04T09:02:59.272Z,0.7
2019-03-04T09:08:22.941Z,0.8
2019-03-04T09:13:45.629Z,0.7
2019-03-04T09:19:08.262Z,0.6
2019-03-04T09:24:31.000Z,1
2019-03-04T09:29:53.691Z,1
2019-03-04T09:35:16.731Z,1
2019-03-04T09:40:39.354Z,1.1
2019-03-04T09:46:02.069Z,1.2
2019-03-04T09:51:24.856Z,1.1
2019-03-04T09:56:47.501Z,1.3
2019-03-04T10:02:10.231Z,1.2
2019-03-04T10:07:32.871Z,1.3
2019-03-04T10:12:55.585Z,1
2019-03-04T10:18:18.267Z,1.4
2019-03-04T10:23:40.922Z,1.4
2019-03-04T10:29:03.508Z,1.3
2019-03-04T10:34:26.271Z,1.4
2019-03-04T10:39:48.907Z,1.2
2019-03-04T10:45:11.807Z,1.1
2019-03-04T10:50:34.489Z,1
2019-03-04T10:55:57.173Z,0.9
2019-03-04T11:01:30.061Z,1.4
2019-03-04T11:06:50.135Z,1.4
2019-03-04T11:12:14.122Z,1
2019-03-04T11:17:37.918Z,1
2019-03-04T11:23:01.105Z,1
2019-03-04T11:28:24.152Z,1.1
2019-03-04T11:33:46.889Z,1
2019-03-04T11:39:09.570Z,1.1
2019-03-04T11:44:33.223Z,1.2
2019-03-04T11:49:55.934Z,1.2
2019-03-04T11:55:18.747Z,1.3
2019-03-04T12:00:41.432Z,1.6
2019-03-04T12:06:04.161Z,1.4
2019-03-04T12:11:37.754Z,1.4
2019-03-04T12:16:51.870Z,1.6
2019-03-04T12:22:14.593Z,1.8
2019-03-04T12:27:39.840Z,1.5
2019-03-04T12:33:02.677Z,1.7
2019-03-04T12:38:25.360Z,2.2
2019-03-04T12:43:48.246Z,2.6
2019-03-04T12:49:11.017Z,3
2019-03-04T12:54:33.729Z,3.3
2019-03-04T12:59:56.323Z,3.2
2019-03-04T13:05:19.098Z,3.4
2019-03-04T13:10:41.736Z,3.2
2019-03-04T13:16:05.457Z,2.8
2019-03-04T13:21:28.086Z,2.8
2019-03-04T13:26:50.804Z,3
2019-03-04T13:32:14.943Z,2.2
2019-03-04T13:37:38.011Z,3
2019-03-04T13:43:00.316Z,2.8
2019-03-04T13:48:23.150Z,2.9
2019-03-04T13:53:45.940Z,3.1
2019-03-04T13:59:08.738Z,3.2
2019-03-04T14:04:31.433Z,2.8
2019-03-04T14:09:54.223Z,3
2019-03-04T14:15:27.257Z,2.7
2019-03-04T14:20:51.601Z,2.5
2019-03-04T14:26:14.213Z,2.9
2019-03-04T14:31:36.869Z,2.7
2019-03-04T14:36:59.673Z,2.8
2019-03-04T14:42:22.487Z,2.7
2019-03-04T14:47:45.286Z,2.5
2019-03-04T14:53:07.868Z,2.6
2019-03-04T14:58:29.845Z,2.6
2019-03-04T15:03:52.683Z,2.3
2019-03-04T15:09:15.323Z,2.9
2019-03-04T15:14:38.342Z,2.7
2019-03-04T15:20:09.075Z,2.4
2019-03-04T15:25:26.944Z,3
2019-03-04T15:30:50.376Z,2.5
2019-03-04T15:36:13.498Z,2.7
2019-03-04T15:41:40.227Z,2.9
2019-03-04T15:47:00.031Z,2.7
2019-03-04T15:52:22.630Z,2.6
2019-03-04T15:57:48.398Z,2.2
2019-03-04T16:03:10.021Z,2.3
2019-03-04T16:08:32.809Z,2
2019-03-04T16:13:56.253Z,2.5
2019-03-04T16:19:18.363Z,2.5
2019-03-04T16:24:41.042Z,2.6
2019-03-04T16:30:04.043Z,2.6
2019-03-04T16:35:27.404Z,2
2019-03-04T16:40:50.192Z,2.8
2019-03-04T16:46:12.783Z,2.4
2019-03-04T16:51:35.517Z,2.3
2019-03-04T16:56:58.129Z,2.1
2019-03-04T17:02:21.874Z,2.3
2019-03-04T17:07:44.643Z,2
2019-03-04T17:13:07.410Z,2
2019-03-04T17:18:30.040Z,2.3
2019-03-04T17:23:53.602Z,2.1
2019-03-04T17:29:16.217Z,2
2019-03-04T17:34:38.847Z,2.1
2019-03-04T17:40:03.431Z,1.7
2019-03-04T17:45:26.193Z,2.3
2019-03-04T17:50:49.770Z,2.3
2019-03-04T17:56:12.473Z,2.4
2019-03-04T18:01:35.171Z,2.1
2019-03-04T18:06:57.824Z,2.6
2019-03-04T18:12:20.707Z,2.6
2019-03-04T18:17:43.398Z,2.5
2019-03-04T18:23:05.999Z,2.4
2019-03-04T18:28:29.711Z,2.1
2019-03-04T18:33:53.211Z,2.6
2019-03-04T18:39:16.661Z,2.3
2019-03-04T18:44:39.326Z,2.6
2019-03-04T18:50:02.118Z,2.1
2019-03-04T18:55:25.861Z,2.2
2019-03-04T19:00:48.854Z,2.1
2019-03-04T19:06:12.027Z,2
2019-03-04T19:11:35.018Z,2.2
2019-03-04T19:16:57.683Z,2.5
2019-03-04T19:22:20.725Z,2.3
2019-03-04T19:27:43.461Z,1.9
2019-03-04T19:33:06.233Z,2.6
2019-03-04T19:38:28.918Z,2.5
2019-03-04T19:43:51.641Z,2.1
2019-03-04T19:49:14.251Z,2.1
2019-03-04T19:54:37.347Z,2.3
2019-03-04T20:00:00.058Z,2.1
2019-03-04T20:05:22.839Z,2.4
2019-03-04T20:10:46.650Z,2.2
2019-03-04T20:16:09.667Z,2
2019-03-04T20:21:33.794Z,2
2019-03-04T20:26:56.505Z,2.1
2019-03-04T20:32:19.319Z,2.1
2019-03-04T20:37:41.975Z,2.2
2019-03-04T20:43:06.386Z,2.4
2019-03-04T20:48:30.213Z,2.3
2019-03-04T20:53:52.977Z,2.2
2019-03-04T20:59:16.915Z,2.1
2019-03-04T21:04:39.713Z,2.3
2019-03-04T21:10:05.579Z,2.1
2019-03-04T21:15:28.317Z,3
2019-03-04T21:20:51.130Z,2.9
2019-03-04T21:26:13.905Z,2.4
2019-03-04T21:31:36.600Z,2.2
2019-03-04T21:37:00.249Z,2.2
2019-03-04T21:42:23.581Z,2
2019-03-04T21:47:46.185Z,2
2019-03-04T21:53:09.277Z,2
2019-03-04T21:58:31.938Z,2
2019-03-04T22:03:54.962Z,2.1
2019-03-04T22:09:18.615Z,1.8
2019-03-04T22:14:41.364Z,2.1
2019-03-04T22:20:04.821Z,2.3
2019-03-04T22:25:28.044Z,2.6
2019-03-04T22:30:51.232Z,2.9
2019-03-04T22:36:13.783Z,4.1
2019-03-04T22:41:36.390Z,4.9
2019-03-04T22:46:59.296Z,5.2
2019-03-04T22:52:22.006Z,5.7
2019-03-04T22:57:44.769Z,5.7
2019-03-04T23:03:07.415Z,5.4
2019-03-04T23:08:31.243Z,5.3
2019-03-04T23:13:54.025Z,5.1
2019-03-04T23:19:16.667Z,4
2019-03-04T23:24:39.377Z,4.3
2019-03-04T23:30:02.772Z,5.6
2019-03-04T23:35:26.402Z,5.9
2019-03-04T23:40:49.081Z,7.6
2019-03-04T23:46:11.732Z,8.2
2019-03-04T23:51:34.343Z,8.4
2019-03-04T23:56:58.148Z,7.9
